createdAt,value
2024-01-09T00:00:26.686Z,22.12
2024-01-09T00:01:26.686Z,22.13
2024-01-09T00:02:26.708Z,22.12
2024-01-09T00:03:26.727Z,22.12
2024-01-09T00:04:26.672Z,22.11
2024-01-09T00:57:52.418Z,21.80
2024-01-09T00:58:25.163Z,21.85
2024-01-09T00:59:26.210Z,21.91
2024-01-09T01:00:26.130Z,21.95
2024-01-09T01:01:26.656Z,21.98
2024-01-09T01:02:26.186Z,22.00
2024-01-09T01:03:26.118Z,22.00
2024-01-09T01:04:26.166Z,22.00
2024-01-09T01:05:26.191Z,22.03
2024-01-09T01:06:26.080Z,22.04
2024-01-09T01:07:26.066Z,22.05
2024-01-09T01:08:26.105Z,22.05
2024-01-09T01:09:26.075Z,22.05
2024-01-09T01:10:26.062Z,22.05
2024-01-09T01:11:26.072Z,22.04
2024-01-09T01:12:26.041Z,22.03
2024-01-09T01:13:26.045Z,22.04
2024-01-09T01:14:26.101Z,22.05
2024-01-09T01:15:25.997Z,22.04
2024-01-09T01:16:25.974Z,22.04
2024-01-09T01:17:26.734Z,22.04
2024-01-09T01:18:26.053Z,22.04
2024-01-09T01:19:25.974Z,22.04
2024-01-09T01:20:25.998Z,22.05
2024-01-09T01:21:25.931Z,22.04
2024-01-09T01:22:25.921Z,22.05
2024-01-09T01:23:25.947Z,22.04
2024-01-09T01:24:25.926Z,22.05
2024-01-09T01:25:25.901Z,22.04
2024-01-09T01:26:25.913Z,22.04
2024-01-09T01:27:25.892Z,22.04
2024-01-09T01:28:25.875Z,22.04
2024-01-09T01:29:25.937Z,22.04
2024-01-09T01:30:25.935Z,22.05
2024-01-09T01:31:25.841Z,22.06
2024-01-09T01:32:26.179Z,22.05
2024-01-09T01:33:28.771Z,22.04
2024-01-09T01:34:25.879Z,22.05
2024-01-09T01:35:25.826Z,22.05
2024-01-09T01:36:25.796Z,22.05
2024-01-09T01:37:25.796Z,22.06
2024-01-09T01:38:25.797Z,22.07
2024-01-09T01:39:25.771Z,22.07
2024-01-09T01:40:25.760Z,22.07
2024-01-09T01:41:25.773Z,22.06
2024-01-09T01:42:25.739Z,22.06
2024-01-09T01:43:24.753Z,22.06
2024-01-09T01:44:25.761Z,22.06
2024-01-09T01:45:25.737Z,22.06
2024-01-09T01:46:28.672Z,22.06
2024-01-09T01:47:24.893Z,22.05
2024-01-09T01:48:25.833Z,22.04
2024-01-09T01:49:25.704Z,22.03
2024-01-09T01:50:25.775Z,22.02
2024-01-09T01:51:25.656Z,22.02
2024-01-09T01:52:25.668Z,22.02
2024-01-09T01:53:25.046Z,22.02
2024-01-09T01:54:25.883Z,22.00
2024-01-09T01:55:25.844Z,22.00
2024-01-09T01:56:25.939Z,22.00
2024-01-09T01:57:26.667Z,22.00
2024-01-09T01:58:25.816Z,22.02
2024-01-09T01:59:25.836Z,22.01
2024-01-09T02:00:25.800Z,22.02
2024-01-09T02:01:25.848Z,22.01
2024-01-09T02:02:26.742Z,22.00
2024-01-09T02:03:28.689Z,21.99
2024-01-09T02:04:25.838Z,21.99
2024-01-09T02:05:26.130Z,22.00
2024-01-09T02:06:25.881Z,22.01
2024-01-09T02:07:25.778Z,22.00
2024-01-09T02:08:25.809Z,22.00
2024-01-09T02:09:26.197Z,21.99
2024-01-09T02:10:25.746Z,21.98
2024-01-09T02:11:25.754Z,21.99
2024-01-09T02:12:25.734Z,22.00
2024-01-09T02:13:25.732Z,22.01
2024-01-09T02:14:26.771Z,22.03
2024-01-09T02:15:25.700Z,22.03
2024-01-09T02:16:25.699Z,22.05
2024-01-09T02:17:31.992Z,22.05
2024-01-09T02:18:26.551Z,22.04
2024-01-09T02:19:25.693Z,22.06
2024-01-09T02:20:25.736Z,22.05
2024-01-09T02:21:25.648Z,22.05
2024-01-09T02:22:25.646Z,22.03
2024-01-09T02:23:25.674Z,22.01
2024-01-09T02:24:25.666Z,22.00
2024-01-09T02:25:25.617Z,21.99
2024-01-09T02:26:40.482Z,21.98
2024-01-09T02:27:25.633Z,21.96
2024-01-09T02:28:25.681Z,21.96
2024-01-09T02:29:25.673Z,21.96
2024-01-09T02:30:25.622Z,21.96
2024-01-09T02:31:25.554Z,21.96
2024-01-09T02:32:26.611Z,21.97
2024-01-09T02:33:25.864Z,21.96
2024-01-09T02:34:25.649Z,21.97
2024-01-09T02:35:28.205Z,21.98
2024-01-09T02:36:25.691Z,21.98
2024-01-09T02:37:25.518Z,21.98
2024-01-09T02:38:25.565Z,21.99
2024-01-09T02:39:25.488Z,21.98
2024-01-09T02:40:25.506Z,21.97
2024-01-09T02:41:25.508Z,21.98
2024-01-09T02:42:25.515Z,21.97
2024-01-09T02:43:25.455Z,21.97
2024-01-09T02:44:24.469Z,21.98
2024-01-09T02:45:25.452Z,21.98
2024-01-09T02:46:25.424Z,21.98
2024-01-09T02:47:25.466Z,21.99
2024-01-09T02:48:25.524Z,22.00
2024-01-09T02:49:28.300Z,22.00
2024-01-09T02:50:25.466Z,21.98
2024-01-09T02:51:25.392Z,21.98
2024-01-09T02:52:26.499Z,21.99
2024-01-09T02:53:25.613Z,21.99
2024-01-09T02:54:25.397Z,22.00
2024-01-09T02:55:25.393Z,21.99
2024-01-09T02:56:25.456Z,21.98
2024-01-09T02:57:25.374Z,21.99
2024-01-09T02:58:25.378Z,21.98
2024-01-09T02:59:25.416Z,21.99
2024-01-09T03:00:25.370Z,22.00
2024-01-09T03:01:25.361Z,21.99
2024-01-09T03:02:25.426Z,21.99
2024-01-09T03:03:25.432Z,21.98
2024-01-09T03:04:25.318Z,21.99
2024-01-09T03:05:25.398Z,21.98
2024-01-09T03:06:25.374Z,21.98
2024-01-09T03:07:25.376Z,21.98
2024-01-09T03:08:25.292Z,21.97
2024-01-09T03:09:25.257Z,21.97
2024-01-09T03:10:25.262Z,21.97
2024-01-09T03:11:25.276Z,21.96
2024-01-09T03:12:25.234Z,21.97
2024-01-09T03:13:25.242Z,21.97
2024-01-09T03:14:25.267Z,21.99
2024-01-09T03:15:25.211Z,21.99
2024-01-09T03:16:25.198Z,21.99
2024-01-09T03:17:25.268Z,21.99
2024-01-09T03:18:25.410Z,21.99
2024-01-09T03:19:25.771Z,21.99
2024-01-09T03:20:25.754Z,22.00
2024-01-09T03:21:25.190Z,21.99
2024-01-09T03:22:25.148Z,21.99
2024-01-09T03:23:25.222Z,21.99
2024-01-09T03:24:25.127Z,22.00
2024-01-09T03:25:25.219Z,22.00
2024-01-09T03:26:25.131Z,22.00
2024-01-09T03:27:25.115Z,21.99
2024-01-09T03:28:25.714Z,21.99
2024-01-09T03:29:25.143Z,21.99
2024-01-09T03:30:25.084Z,21.99
2024-01-09T03:31:25.069Z,21.99
2024-01-09T03:32:25.196Z,21.99
2024-01-09T03:33:25.313Z,21.98
2024-01-09T03:34:25.049Z,21.98
2024-01-09T03:35:25.046Z,21.98
2024-01-09T03:36:25.036Z,21.97
2024-01-09T03:37:27.736Z,21.96
2024-01-09T03:38:25.767Z,21.96
2024-01-09T03:39:25.006Z,21.97
2024-01-09T03:40:24.984Z,21.97
2024-01-09T03:41:24.005Z,21.97
2024-01-09T03:42:24.985Z,21.96
2024-01-09T03:43:24.985Z,21.97
2024-01-09T03:44:25.036Z,21.96
2024-01-09T03:45:24.966Z,21.96
2024-01-09T03:46:24.947Z,21.96
2024-01-09T03:47:24.960Z,21.96
2024-01-09T03:48:24.960Z,21.96
2024-01-09T03:49:25.808Z,21.97
2024-01-09T03:50:24.979Z,21.97
2024-01-09T03:51:24.876Z,21.96
2024-01-09T03:52:25.734Z,21.97
2024-01-09T03:53:24.990Z,21.95
2024-01-09T03:54:24.867Z,21.94
2024-01-09T03:55:24.993Z,21.95
2024-01-09T03:56:24.879Z,21.95
2024-01-09T03:57:25.245Z,21.97
2024-01-09T03:58:24.836Z,21.97
2024-01-09T03:59:24.924Z,21.97
2024-01-09T04:00:24.882Z,21.97
2024-01-09T04:01:24.878Z,21.96
2024-01-09T04:02:27.745Z,21.95
2024-01-09T04:03:27.794Z,21.95
2024-01-09T04:04:26.907Z,21.96
2024-01-09T04:05:24.895Z,21.96
2024-01-09T04:06:24.775Z,21.96
2024-01-09T04:07:24.745Z,21.97
2024-01-09T04:08:24.754Z,21.96
2024-01-09T04:09:24.752Z,21.96
2024-01-09T04:10:24.704Z,21.95
2024-01-09T04:11:24.720Z,21.93
2024-01-09T04:12:24.700Z,21.92
2024-01-09T04:13:24.694Z,21.94
2024-01-09T04:14:24.701Z,21.94
2024-01-09T04:15:24.659Z,21.96
2024-01-09T04:16:24.650Z,21.95
2024-01-09T04:17:24.717Z,21.94
2024-01-09T04:18:24.849Z,21.94
2024-01-09T04:19:24.652Z,21.94
2024-01-09T04:20:24.659Z,21.92
2024-01-09T04:21:24.600Z,21.93
2024-01-09T04:22:24.659Z,21.93
2024-01-09T04:23:24.632Z,21.94
2024-01-09T04:24:24.591Z,21.95
2024-01-09T04:25:24.607Z,21.95
2024-01-09T04:26:24.612Z,21.96
2024-01-09T04:27:24.546Z,21.96
2024-01-09T04:28:24.544Z,21.96
2024-01-09T04:29:24.555Z,21.97
2024-01-09T04:30:24.542Z,21.96
2024-01-09T04:31:24.522Z,21.96
2024-01-09T04:32:24.659Z,21.94
2024-01-09T04:33:24.661Z,21.94
2024-01-09T04:34:23.618Z,21.92
2024-01-09T04:35:24.521Z,21.94
2024-01-09T04:36:24.471Z,21.94
2024-01-09T04:37:24.454Z,21.95
2024-01-09T04:38:24.490Z,21.94
2024-01-09T04:39:24.457Z,21.94
2024-01-09T04:40:24.431Z,21.95
2024-01-09T04:41:24.511Z,21.95
2024-01-09T04:42:24.413Z,21.94
2024-01-09T04:43:24.414Z,21.95
2024-01-09T04:44:24.504Z,21.95
2024-01-09T04:45:24.470Z,21.95
2024-01-09T04:46:24.759Z,21.94
2024-01-09T04:47:24.549Z,21.95
2024-01-09T04:48:25.407Z,21.96
2024-01-09T04:49:23.471Z,21.94
2024-01-09T04:50:24.398Z,21.95
2024-01-09T04:51:24.332Z,21.96
2024-01-09T04:52:24.320Z,21.96
2024-01-09T04:53:24.339Z,21.96
2024-01-09T04:54:24.301Z,21.96
2024-01-09T04:55:24.298Z,21.96
2024-01-09T04:56:23.314Z,21.94
2024-01-09T04:57:24.305Z,21.94
2024-01-09T04:58:24.273Z,21.95
2024-01-09T04:59:24.285Z,21.94
2024-01-09T05:00:24.248Z,21.95
2024-01-09T05:01:27.493Z,21.95
2024-01-09T05:02:24.264Z,21.95
2024-01-09T05:03:24.300Z,21.96
2024-01-09T05:04:24.226Z,21.95
2024-01-09T05:05:24.245Z,21.94
2024-01-09T05:06:24.361Z,21.94
2024-01-09T05:07:24.188Z,21.94
2024-01-09T05:08:24.796Z,21.95
2024-01-09T05:09:24.184Z,21.94
2024-01-09T05:10:24.172Z,21.95
2024-01-09T05:11:24.199Z,21.94
2024-01-09T05:12:24.144Z,21.94
2024-01-09T05:13:24.160Z,21.94
2024-01-09T05:14:24.152Z,21.94
2024-01-09T05:15:24.115Z,21.93
2024-01-09T05:16:24.101Z,21.93
2024-01-09T05:17:24.260Z,21.94
2024-01-09T05:18:24.232Z,21.93
2024-01-09T05:19:24.263Z,21.93
2024-01-09T05:20:24.084Z,21.93
2024-01-09T05:21:24.060Z,21.93
2024-01-09T05:22:24.050Z,21.93
2024-01-09T05:23:24.087Z,21.93
2024-01-09T05:24:24.035Z,21.93
2024-01-09T05:25:24.041Z,21.94
2024-01-09T05:26:24.065Z,21.94
2024-01-09T05:27:24.005Z,21.94
2024-01-09T05:28:24.265Z,21.94
2024-01-09T05:29:24.045Z,21.94
2024-01-09T05:30:24.308Z,21.93
2024-01-09T05:31:24.647Z,21.92
2024-01-09T05:32:24.063Z,21.91
2024-01-09T05:33:24.177Z,21.89
2024-01-09T05:34:24.043Z,21.89
2024-01-09T05:35:23.948Z,21.90
2024-01-09T05:36:24.754Z,21.91
2024-01-09T05:37:23.000Z,21.90
2024-01-09T05:38:24.060Z,21.91
2024-01-09T05:39:23.902Z,21.92
2024-01-09T05:40:23.911Z,21.92
2024-01-09T05:41:24.117Z,21.94
2024-01-09T05:42:26.756Z,21.93
2024-01-09T05:43:22.871Z,21.92
2024-01-09T05:44:26.821Z,21.92
2024-01-09T05:45:23.843Z,21.91
2024-01-09T05:46:24.755Z,21.92
2024-01-09T05:47:23.874Z,21.92
2024-01-09T05:48:24.425Z,21.92
2024-01-09T05:49:24.862Z,21.93
2024-01-09T05:50:23.835Z,21.92
2024-01-09T05:51:23.802Z,21.91
2024-01-09T05:52:26.760Z,21.92
2024-01-09T05:53:23.798Z,21.91
2024-01-09T05:54:22.773Z,21.90
2024-01-09T05:55:23.763Z,21.90
2024-01-09T05:56:23.835Z,21.89
2024-01-09T05:57:23.747Z,21.89
2024-01-09T05:58:23.732Z,21.91
2024-01-09T05:59:23.743Z,21.91
2024-01-09T06:00:23.779Z,21.92
2024-01-09T06:01:23.750Z,21.93
2024-01-09T06:02:23.737Z,21.93
2024-01-09T06:03:23.697Z,21.93
2024-01-09T06:04:23.678Z,21.91
2024-01-09T06:05:24.481Z,21.92
2024-01-09T06:06:23.708Z,21.94
2024-01-09T06:07:23.673Z,21.94
2024-01-09T06:08:23.669Z,21.94
2024-01-09T06:09:23.643Z,21.94
2024-01-09T06:10:23.654Z,21.95
2024-01-09T06:11:24.283Z,21.95
2024-01-09T06:12:23.612Z,21.95
2024-01-09T06:13:22.603Z,21.95
2024-01-09T06:14:23.650Z,21.95
2024-01-09T06:15:23.639Z,21.94
2024-01-09T06:16:23.695Z,21.94
2024-01-09T06:17:23.645Z,21.95
2024-01-09T06:18:24.442Z,21.95
2024-01-09T06:19:26.927Z,21.95
2024-01-09T06:20:23.638Z,21.94
2024-01-09T06:21:23.559Z,21.95
2024-01-09T06:22:26.566Z,21.94
2024-01-09T06:23:23.538Z,21.94
2024-01-09T06:24:23.517Z,21.95
2024-01-09T06:25:23.521Z,21.95
2024-01-09T06:26:23.522Z,21.96
2024-01-09T06:27:23.495Z,21.96
2024-01-09T06:28:23.463Z,21.94
2024-01-09T06:29:23.839Z,21.94
2024-01-09T06:30:23.551Z,21.94
2024-01-09T06:31:23.776Z,21.94
2024-01-09T06:32:23.589Z,21.94
2024-01-09T06:33:23.528Z,21.94
2024-01-09T06:34:23.462Z,21.94
2024-01-09T06:35:23.850Z,21.95
2024-01-09T06:36:23.402Z,21.94
2024-01-09T06:37:23.434Z,21.95
2024-01-09T06:38:23.400Z,21.96
2024-01-09T06:39:23.382Z,21.98
2024-01-09T06:40:22.371Z,21.96
2024-01-09T06:41:23.845Z,21.74
2024-01-09T06:42:23.341Z,21.41
2024-01-09T06:43:23.338Z,21.08
2024-01-09T06:44:23.350Z,20.80
2024-01-09T06:45:23.808Z,20.53
2024-01-09T06:46:23.308Z,20.33
2024-01-09T06:47:23.387Z,20.14
2024-01-09T06:48:23.581Z,19.95
2024-01-09T06:49:23.307Z,19.78
2024-01-09T06:50:33.052Z,19.65
2024-01-09T06:51:23.348Z,19.56
2024-01-09T06:52:24.383Z,19.53
2024-01-09T06:53:23.246Z,19.57
2024-01-09T06:54:23.778Z,19.68
2024-01-09T06:55:24.294Z,19.75
2024-01-09T06:56:23.673Z,19.81
2024-01-09T06:57:23.223Z,19.85
2024-01-09T06:58:55.134Z,19.87
2024-01-09T06:59:25.295Z,19.91
2024-01-09T07:00:22.242Z,19.96
2024-01-09T07:01:23.448Z,20.03
2024-01-09T07:02:23.177Z,20.07
2024-01-09T07:03:23.177Z,20.12
2024-01-09T07:04:23.299Z,20.15
2024-01-09T07:05:23.300Z,20.18
2024-01-09T07:06:25.755Z,20.20
2024-01-09T07:07:34.648Z,20.22
2024-01-09T07:08:23.157Z,20.24
2024-01-09T07:09:23.101Z,20.27
2024-01-09T07:10:23.087Z,20.29
2024-01-09T07:11:23.317Z,20.31
2024-01-09T07:12:23.070Z,20.32
2024-01-09T07:13:23.806Z,20.32
2024-01-09T07:14:23.169Z,20.35
2024-01-09T07:15:23.120Z,20.37
2024-01-09T07:16:23.309Z,20.41
2024-01-09T07:17:23.127Z,20.44
2024-01-09T07:18:23.064Z,20.46
2024-01-09T07:19:23.057Z,20.48
2024-01-09T07:20:23.036Z,20.49
2024-01-09T07:21:23.297Z,20.51
2024-01-09T07:22:22.986Z,20.51
2024-01-09T07:23:23.075Z,20.51
2024-01-09T07:24:23.023Z,20.53
2024-01-09T07:25:23.249Z,20.53
2024-01-09T07:26:23.309Z,20.55
2024-01-09T07:27:22.924Z,20.57
2024-01-09T07:28:22.922Z,20.59
2024-01-09T07:29:22.933Z,20.59
2024-01-09T07:30:21.911Z,20.61
2024-01-09T07:31:23.316Z,20.62
2024-01-09T07:32:22.923Z,20.62
2024-01-09T07:33:23.441Z,20.64
2024-01-09T07:34:22.954Z,20.65
2024-01-09T07:35:22.939Z,20.66
2024-01-09T07:36:22.867Z,20.65
2024-01-09T07:37:22.850Z,20.65
2024-01-09T07:38:22.345Z,20.65
2024-01-09T07:39:22.806Z,20.65
2024-01-09T07:40:23.301Z,20.67
2024-01-09T07:41:22.828Z,20.68
2024-01-09T07:42:22.780Z,20.70
2024-01-09T07:43:22.779Z,20.71
2024-01-09T07:44:22.776Z,20.74
2024-01-09T07:45:22.860Z,20.75
2024-01-09T07:46:22.760Z,20.80
2024-01-09T07:47:22.949Z,20.81
2024-01-09T07:48:23.201Z,20.82
2024-01-09T07:49:22.826Z,20.83
2024-01-09T07:50:22.744Z,20.83
2024-01-09T07:51:22.703Z,20.83
2024-01-09T07:52:22.713Z,20.83
2024-01-09T07:53:23.727Z,20.85
2024-01-09T07:54:21.697Z,20.86
2024-01-09T07:55:22.660Z,20.88
2024-01-09T07:56:22.671Z,20.89
2024-01-09T07:57:23.106Z,20.90
2024-01-09T07:58:21.637Z,20.90
2024-01-09T07:59:22.822Z,20.90
2024-01-09T08:00:22.622Z,20.88
2024-01-09T08:01:22.737Z,20.87
2024-01-09T08:02:23.358Z,20.85
2024-01-09T08:03:23.214Z,20.86
2024-01-09T08:04:22.846Z,20.87
2024-01-09T08:05:22.603Z,20.86
2024-01-09T08:06:22.709Z,20.86
2024-01-09T08:07:22.592Z,20.85
2024-01-09T08:08:22.626Z,20.84
2024-01-09T08:09:23.821Z,20.82
2024-01-09T08:10:22.690Z,20.82
2024-01-09T08:11:23.404Z,20.82
2024-01-09T08:12:22.712Z,20.83
2024-01-09T08:13:22.666Z,20.83
2024-01-09T08:14:22.818Z,20.82
2024-01-09T08:15:22.738Z,20.81
2024-01-09T08:16:22.834Z,20.83
2024-01-09T08:17:22.688Z,20.85
2024-01-09T08:18:23.580Z,20.85
2024-01-09T08:19:22.961Z,20.86
2024-01-09T08:20:21.656Z,20.84
2024-01-09T08:21:23.317Z,20.86
2024-01-09T08:22:22.613Z,20.88
2024-01-09T08:23:22.622Z,20.90
2024-01-09T08:24:22.866Z,20.91
2024-01-09T08:25:22.562Z,20.89
2024-01-09T08:26:22.838Z,20.95
2024-01-09T08:27:22.517Z,21.02
2024-01-09T08:28:22.840Z,21.13
2024-01-09T08:29:22.550Z,21.23
2024-01-09T08:30:22.681Z,21.34
2024-01-09T08:31:22.917Z,21.43
2024-01-09T08:32:22.693Z,21.52
2024-01-09T08:33:25.895Z,21.60
2024-01-09T08:34:22.646Z,21.67
2024-01-09T08:35:22.548Z,21.75
2024-01-09T08:36:22.846Z,21.84
2024-01-09T08:37:22.866Z,21.90
2024-01-09T08:38:22.474Z,21.96
2024-01-09T08:39:22.426Z,22.02
2024-01-09T08:40:22.447Z,22.07
2024-01-09T08:41:22.894Z,22.11
2024-01-09T08:42:22.428Z,22.14
2024-01-09T08:43:22.394Z,22.12
2024-01-09T08:44:22.403Z,21.27
2024-01-09T08:45:22.361Z,20.51
2024-01-09T08:46:21.843Z,19.71
2024-01-09T08:47:22.423Z,19.05
2024-01-09T08:48:21.503Z,18.40
2024-01-09T08:49:22.412Z,17.77
2024-01-09T08:50:22.409Z,17.57
2024-01-09T08:51:24.607Z,17.79
2024-01-09T08:52:22.405Z,18.14
2024-01-09T08:53:22.375Z,18.50
2024-01-09T08:54:22.271Z,18.86
2024-01-09T08:55:22.258Z,19.20
2024-01-09T08:56:22.401Z,19.51
2024-01-09T08:57:23.288Z,19.79
2024-01-09T08:58:22.241Z,20.04
2024-01-09T08:59:22.309Z,20.27
2024-01-09T09:00:22.225Z,20.48
2024-01-09T09:01:22.516Z,20.67
2024-01-09T09:02:22.279Z,20.85
2024-01-09T09:03:25.001Z,21.02
2024-01-09T09:04:22.196Z,21.17
2024-01-09T09:05:22.302Z,21.29
2024-01-09T09:06:22.407Z,21.43
2024-01-09T09:07:22.348Z,21.53
2024-01-09T09:08:22.164Z,21.64
2024-01-09T09:09:25.857Z,21.73
2024-01-09T09:10:22.131Z,21.80
2024-01-09T09:11:22.140Z,21.88
2024-01-09T09:12:22.362Z,21.95
2024-01-09T09:13:21.100Z,22.02
2024-01-09T09:14:22.138Z,22.10
2024-01-09T09:15:22.843Z,22.17
2024-01-09T09:16:22.338Z,22.22
2024-01-09T09:17:22.088Z,22.28
2024-01-09T09:18:22.139Z,22.33
2024-01-09T09:19:22.118Z,22.36
2024-01-09T09:20:22.144Z,22.41
2024-01-09T09:21:22.343Z,22.44
2024-01-09T09:22:22.410Z,22.48
2024-01-09T09:23:22.088Z,22.52
2024-01-09T09:24:21.999Z,22.56
2024-01-09T09:25:22.357Z,22.61
2024-01-09T09:26:22.127Z,22.63
2024-01-09T09:27:22.355Z,22.68
2024-01-09T09:28:21.995Z,22.71
2024-01-09T09:29:28.505Z,22.72
2024-01-09T09:30:21.999Z,22.75
2024-01-09T09:31:22.362Z,22.77
2024-01-09T09:32:21.966Z,22.82
2024-01-09T09:33:22.026Z,22.85
2024-01-09T09:34:22.891Z,22.87
2024-01-09T09:35:21.919Z,22.89
2024-01-09T09:36:22.355Z,22.91
2024-01-09T09:37:21.883Z,22.94
2024-01-09T09:38:21.922Z,22.96
2024-01-09T09:39:21.890Z,22.98
2024-01-09T09:40:22.850Z,23.01
2024-01-09T09:41:21.921Z,23.03
2024-01-09T09:42:21.834Z,23.04
2024-01-09T09:43:22.362Z,23.06
2024-01-09T09:44:25.104Z,23.08
2024-01-09T09:45:21.812Z,23.10
2024-01-09T09:46:21.976Z,23.12
2024-01-09T09:47:22.063Z,23.13
2024-01-09T09:48:21.875Z,23.16
2024-01-09T09:49:21.879Z,23.18
2024-01-09T09:50:21.812Z,23.20
2024-01-09T09:51:29.186Z,23.23
2024-01-09T09:52:21.763Z,23.22
2024-01-09T09:53:21.819Z,23.25
2024-01-09T09:54:21.728Z,23.26
2024-01-09T09:55:21.711Z,23.29
2024-01-09T09:56:21.904Z,23.31
2024-01-09T09:57:21.704Z,23.33
2024-01-09T09:58:21.881Z,23.34
2024-01-09T09:59:21.779Z,23.36
2024-01-09T10:00:21.687Z,23.36
2024-01-09T10:01:21.712Z,23.40
2024-01-09T10:02:24.126Z,23.41
2024-01-09T10:03:21.772Z,23.42
2024-01-09T10:04:21.753Z,23.44
2024-01-09T10:05:24.483Z,23.45
2024-01-09T10:06:22.638Z,23.47
2024-01-09T10:07:21.637Z,23.49
2024-01-09T10:08:21.685Z,23.50
2024-01-09T10:09:21.594Z,23.52
2024-01-09T10:10:21.593Z,23.55
2024-01-09T10:11:21.613Z,23.56
2024-01-09T10:12:21.562Z,23.58
2024-01-09T10:13:21.895Z,23.59
2024-01-09T10:14:21.611Z,23.59
2024-01-09T10:15:21.911Z,23.60
2024-01-09T10:16:21.570Z,23.62
2024-01-09T10:17:22.557Z,23.63
2024-01-09T10:18:21.761Z,23.65
2024-01-09T10:19:21.542Z,23.67
2024-01-09T10:20:25.159Z,23.68
2024-01-09T10:21:21.904Z,23.69
2024-01-09T10:22:21.503Z,23.71
2024-01-09T10:23:21.516Z,23.72
2024-01-09T10:24:21.907Z,23.73
2024-01-09T10:25:24.708Z,23.74
2024-01-09T10:26:21.535Z,23.75
2024-01-09T10:27:21.448Z,23.77
2024-01-09T10:28:21.887Z,23.79
2024-01-09T10:29:21.927Z,23.80
2024-01-09T10:30:22.858Z,23.81
2024-01-09T10:31:21.576Z,23.76
2024-01-09T10:32:21.567Z,23.70
2024-01-09T10:33:22.779Z,23.72
2024-01-09T10:34:21.975Z,23.74
2024-01-09T10:35:22.466Z,23.75
2024-01-09T10:36:21.471Z,23.77
2024-01-09T10:37:21.436Z,23.78
2024-01-09T10:38:21.886Z,23.79
2024-01-09T10:39:21.915Z,22.80
2024-01-09T10:40:21.474Z,21.37
2024-01-09T10:41:21.546Z,19.97
2024-01-09T10:42:21.447Z,18.74
2024-01-09T10:43:21.910Z,17.72
2024-01-09T10:44:21.900Z,17.15
2024-01-09T10:45:21.886Z,17.29
2024-01-09T10:46:21.442Z,17.61
2024-01-09T10:47:21.626Z,18.02
2024-01-09T10:48:21.502Z,18.45
2024-01-09T10:49:23.462Z,18.86
2024-01-09T10:50:21.572Z,19.24
2024-01-09T10:51:21.416Z,19.63
2024-01-09T10:52:21.455Z,19.97
2024-01-09T10:53:21.637Z,20.29
2024-01-09T10:54:21.306Z,20.58
2024-01-09T10:55:22.384Z,20.86
2024-01-09T10:56:20.294Z,21.06
2024-01-09T10:57:21.450Z,21.26
2024-01-09T10:58:21.250Z,21.45
2024-01-09T10:59:22.273Z,21.61
2024-01-09T11:00:21.384Z,21.76
2024-01-09T11:01:21.460Z,21.90
2024-01-09T11:02:21.259Z,22.03
2024-01-09T11:03:21.651Z,22.15
2024-01-09T11:04:21.720Z,22.25
2024-01-09T11:05:21.455Z,22.34
2024-01-09T11:06:21.469Z,22.42
2024-01-09T11:07:21.569Z,22.50
2024-01-09T11:08:21.497Z,22.58
2024-01-09T11:09:21.798Z,22.64
2024-01-09T11:10:21.366Z,22.72
2024-01-09T11:11:21.461Z,22.77
2024-01-09T11:12:21.979Z,22.83
2024-01-09T11:13:22.305Z,22.88
2024-01-09T11:14:21.269Z,22.92
2024-01-09T11:15:21.769Z,22.97
2024-01-09T11:16:21.091Z,23.02
2024-01-09T11:17:21.140Z,23.05
2024-01-09T11:18:21.128Z,23.09
2024-01-09T11:19:21.123Z,23.13
2024-01-09T11:20:21.521Z,23.17
2024-01-09T11:21:21.384Z,23.19
2024-01-09T11:22:21.017Z,23.22
2024-01-09T11:23:21.427Z,23.25
2024-01-09T11:24:21.007Z,23.28
2024-01-09T11:25:21.037Z,23.28
2024-01-09T11:26:21.124Z,23.31
2024-01-09T11:27:21.028Z,23.32
2024-01-09T11:28:21.408Z,22.25
2024-01-09T11:29:21.044Z,21.26
2024-01-09T11:30:21.007Z,21.12
2024-01-09T11:31:20.980Z,21.17
2024-01-09T11:32:21.417Z,21.27
2024-01-09T11:33:21.091Z,21.45
2024-01-09T11:34:21.486Z,21.62
2024-01-09T11:35:20.956Z,21.80
2024-01-09T11:36:20.909Z,21.97
2024-01-09T11:37:20.896Z,22.14
2024-01-09T11:38:20.943Z,22.29
2024-01-09T11:39:20.980Z,22.42
2024-01-09T11:40:20.856Z,22.55
2024-01-09T11:41:20.961Z,22.67
2024-01-09T11:42:21.861Z,22.77
2024-01-09T11:43:20.914Z,22.87
2024-01-09T11:44:20.836Z,22.94
2024-01-09T11:45:20.828Z,23.03
2024-01-09T11:46:20.845Z,23.10
2024-01-09T11:47:20.901Z,23.18
2024-01-09T11:48:21.515Z,23.24
2024-01-09T11:49:21.050Z,23.28
2024-01-09T11:50:20.792Z,23.35
2024-01-09T11:51:20.744Z,23.41
2024-01-09T11:52:20.764Z,23.45
2024-01-09T11:53:20.761Z,23.50
2024-01-09T11:54:20.895Z,23.55
2024-01-09T11:55:20.733Z,23.59
2024-01-09T11:56:20.812Z,23.62
2024-01-09T11:57:20.741Z,23.64
2024-01-09T11:58:20.680Z,23.68
2024-01-09T11:59:20.976Z,23.71
2024-01-09T12:00:20.700Z,23.73
2024-01-09T12:01:20.891Z,23.75
2024-01-09T12:02:21.712Z,23.77
2024-01-09T12:03:20.640Z,23.79
2024-01-09T12:04:20.080Z,23.82
2024-01-09T12:05:20.700Z,23.83
2024-01-09T12:06:20.728Z,23.86
2024-01-09T12:07:20.945Z,23.88
2024-01-09T12:08:20.641Z,23.89
2024-01-09T12:09:20.936Z,23.90
2024-01-09T12:10:29.992Z,23.92
2024-01-09T12:11:20.620Z,23.93
2024-01-09T12:12:20.925Z,23.94
2024-01-09T12:13:20.585Z,23.90
2024-01-09T12:14:20.956Z,23.79
2024-01-09T12:15:20.662Z,23.62
2024-01-09T12:16:20.920Z,23.47
2024-01-09T12:17:20.965Z,23.29
2024-01-09T12:18:20.670Z,23.13
2024-01-09T12:19:20.561Z,22.98
2024-01-09T12:20:20.582Z,22.90
2024-01-09T12:21:21.421Z,22.91
2024-01-09T12:22:20.487Z,22.94
2024-01-09T12:23:20.543Z,22.98
2024-01-09T12:24:24.251Z,23.02
2024-01-09T12:25:20.447Z,23.06
2024-01-09T12:26:20.454Z,23.13
2024-01-09T12:27:21.434Z,23.18
2024-01-09T12:28:20.425Z,23.23
2024-01-09T12:29:20.472Z,23.27
2024-01-09T12:30:21.038Z,23.31
2024-01-09T12:31:20.707Z,23.35
2024-01-09T12:32:20.730Z,23.38
2024-01-09T12:33:21.161Z,23.39
2024-01-09T12:34:21.144Z,23.41
2024-01-09T12:35:20.383Z,23.42
2024-01-09T12:36:20.921Z,23.45
2024-01-09T12:37:20.834Z,23.45
2024-01-09T12:38:20.370Z,23.48
2024-01-09T12:39:21.295Z,23.48
2024-01-09T12:40:20.931Z,23.49
2024-01-09T12:41:20.324Z,23.50
2024-01-09T12:42:20.421Z,23.51
2024-01-09T12:43:20.312Z,23.52
2024-01-09T12:44:20.570Z,23.52
2024-01-09T12:45:20.958Z,23.52
2024-01-09T12:46:20.341Z,23.52
2024-01-09T12:47:20.286Z,23.53
2024-01-09T12:48:20.342Z,23.53
2024-01-09T12:49:20.563Z,23.52
2024-01-09T12:50:20.366Z,23.53
2024-01-09T12:51:20.639Z,23.52
2024-01-09T12:52:20.244Z,23.52
2024-01-09T12:53:20.284Z,23.51
2024-01-09T12:54:20.454Z,23.51
2024-01-09T12:55:20.949Z,23.52
2024-01-09T12:56:20.389Z,23.51
2024-01-09T12:57:20.215Z,23.50
2024-01-09T12:58:20.244Z,23.51
2024-01-09T12:59:20.453Z,23.50
2024-01-09T13:00:20.219Z,23.49
2024-01-09T13:01:20.234Z,23.50
2024-01-09T13:02:20.220Z,23.49
2024-01-09T13:03:20.499Z,23.49
2024-01-09T13:04:20.116Z,23.49
2024-01-09T13:05:20.609Z,23.48
2024-01-09T13:06:20.238Z,23.48
2024-01-09T13:07:20.049Z,23.48
2024-01-09T13:08:20.263Z,23.47
2024-01-09T13:09:20.061Z,23.47
2024-01-09T13:10:20.493Z,23.48
2024-01-09T13:11:20.147Z,23.48
2024-01-09T13:12:20.067Z,23.49
2024-01-09T13:13:19.991Z,23.48
2024-01-09T13:14:20.464Z,23.48
2024-01-09T13:15:19.983Z,23.47
2024-01-09T13:16:20.432Z,23.47
2024-01-09T13:17:19.992Z,23.46
2024-01-09T13:18:19.982Z,23.46
2024-01-09T13:19:20.609Z,23.45
2024-01-09T13:20:19.069Z,23.45
2024-01-09T13:21:20.005Z,23.44
2024-01-09T13:24:19.286Z,23.34
2024-01-09T13:25:19.894Z,23.27
2024-01-09T13:26:20.030Z,23.18
2024-01-09T13:27:19.870Z,23.12
2024-01-09T13:28:20.493Z,23.06
2024-01-09T13:30:46.108Z,23.04
2024-01-09T13:30:47.322Z,23.03
2024-01-09T13:31:19.872Z,23.06
2024-01-09T13:32:19.880Z,23.08
2024-01-09T13:33:19.881Z,23.11
2024-01-09T13:34:20.547Z,23.13
2024-01-09T13:35:19.863Z,23.14
2024-01-09T13:36:20.318Z,23.16
2024-01-09T13:37:18.891Z,23.17
2024-01-09T13:38:20.445Z,23.18
2024-01-09T13:39:19.900Z,23.18
2024-01-09T13:40:19.876Z,23.19
2024-01-09T13:41:19.889Z,23.19
2024-01-09T13:42:19.869Z,23.20
2024-01-09T13:43:19.839Z,23.20
2024-01-09T13:44:19.909Z,23.21
2024-01-09T13:45:19.845Z,23.20
2024-01-09T13:46:20.506Z,23.21